createdAt,value
2022-10-05T00:01:24.860Z,9.64
2022-10-05T00:04:38.489Z,9.62
2022-10-05T00:07:20.894Z,9.59
2022-10-05T00:10:12.467Z,9.58
2022-10-05T00:12:59.497Z,9.51
2022-10-05T00:15:39.614Z,9.45
2022-10-05T00:18:28.507Z,9.41
2022-10-05T00:21:08.555Z,9.35
2022-10-05T00:23:56.484Z,9.29
2022-10-05T00:26:39.690Z,9.30
2022-10-05T00:29:30.480Z,9.22
2022-10-05T00:32:10.973Z,9.21
2022-10-05T00:34:57.439Z,9.26
2022-10-05T00:37:37.574Z,9.20
2022-10-05T00:40:39.544Z,9.20
2022-10-05T00:43:31.623Z,9.22
2022-10-05T00:46:32.455Z,9.24
2022-10-05T00:49:24.532Z,9.20
2022-10-05T00:52:54.471Z,9.22
2022-10-05T00:56:00.432Z,9.28
2022-10-05T00:59:09.419Z,9.30
2022-10-05T01:02:09.614Z,9.35
2022-10-05T01:05:21.410Z,9.37
2022-10-05T01:08:23.371Z,9.40
2022-10-05T01:11:06.532Z,9.40
2022-10-05T01:14:17.385Z,9.41
2022-10-05T01:17:36.365Z,9.45
2022-10-05T01:20:29.386Z,9.41
2022-10-05T01:23:39.777Z,9.46
2022-10-05T01:26:46.661Z,9.47
2022-10-05T01:29:47.882Z,9.50
2022-10-05T01:32:56.395Z,9.47
2022-10-05T01:36:21.187Z,9.38
2022-10-05T01:39:17.331Z,9.37
2022-10-05T01:42:10.367Z,9.38
2022-10-05T01:45:13.503Z,9.36
2022-10-05T01:48:09.327Z,9.33
2022-10-05T01:51:14.368Z,9.36
2022-10-05T01:54:12.723Z,9.26
2022-10-05T01:57:14.342Z,9.28
2022-10-05T02:00:08.354Z,9.27
2022-10-05T02:03:02.614Z,9.22
2022-10-05T02:06:04.340Z,9.24
2022-10-05T02:08:59.361Z,9.22
2022-10-05T02:11:40.916Z,9.17
2022-10-05T02:14:37.346Z,9.08
2022-10-05T02:17:23.869Z,9.11
2022-10-05T02:20:19.283Z,9.07
2022-10-05T02:23:06.139Z,9.10
2022-10-05T02:25:58.325Z,9.11
2022-10-05T02:28:51.446Z,9.10
2022-10-05T02:31:38.397Z,9.09
2022-10-05T02:34:28.778Z,9.10
2022-10-05T02:38:14.282Z,9.14
2022-10-05T02:41:25.303Z,9.14
2022-10-05T02:44:35.276Z,9.17
2022-10-05T02:47:53.302Z,9.21
2022-10-05T02:51:05.282Z,9.22
2022-10-05T02:54:22.265Z,9.23
2022-10-05T02:57:16.462Z,9.21
2022-10-05T03:00:18.239Z,9.29
2022-10-05T03:03:24.314Z,9.27
2022-10-05T03:26:16.560Z,8.71
2022-10-05T03:29:09.154Z,8.88
2022-10-05T03:32:35.554Z,8.92
2022-10-05T03:35:27.610Z,8.98
2022-10-05T03:38:31.515Z,8.94
2022-10-05T03:41:32.005Z,8.93
2022-10-05T03:44:43.509Z,8.92
2022-10-05T03:47:51.515Z,8.99
2022-10-05T03:50:43.663Z,9.12
2022-10-05T03:53:36.499Z,9.20
2022-10-05T03:56:24.585Z,9.26
2022-10-05T03:59:27.729Z,9.34
2022-10-05T04:02:13.682Z,9.37
2022-10-05T04:05:19.449Z,9.49
2022-10-05T04:08:09.453Z,9.58
2022-10-05T04:10:59.442Z,9.76
2022-10-05T04:13:54.587Z,9.85
2022-10-05T04:16:58.462Z,9.92
2022-10-05T04:20:03.506Z,9.99
2022-10-05T04:23:10.252Z,10.09
2022-10-05T04:26:05.435Z,10.22
2022-10-05T04:28:57.456Z,10.34
2022-10-05T04:31:53.624Z,10.66
2022-10-05T04:35:00.465Z,10.94
2022-10-05T04:38:04.427Z,11.14
2022-10-05T04:41:10.454Z,11.15
2022-10-05T04:44:12.578Z,11.10
2022-10-05T04:46:59.466Z,11.17
2022-10-05T04:50:12.919Z,11.29
2022-10-05T04:53:37.418Z,11.48
2022-10-05T04:56:41.437Z,11.50
2022-10-05T04:59:47.398Z,11.62
2022-10-05T05:02:34.443Z,11.59
2022-10-05T05:06:16.036Z,11.64
2022-10-05T05:09:31.384Z,11.63
2022-10-05T05:12:39.714Z,11.78
2022-10-05T05:15:53.437Z,12.00
2022-10-05T05:19:02.385Z,12.28
2022-10-05T05:21:58.868Z,12.14
2022-10-05T05:24:57.381Z,12.05
2022-10-05T05:27:47.571Z,12.18
2022-10-05T05:30:54.415Z,12.21
2022-10-05T05:33:54.388Z,12.16
2022-10-05T05:36:53.388Z,12.02
2022-10-05T05:39:53.506Z,11.95
2022-10-05T05:42:57.340Z,11.82
2022-10-05T05:46:05.345Z,11.87
2022-10-05T05:48:47.480Z,11.91
2022-10-05T05:51:53.343Z,11.93
2022-10-05T05:54:42.425Z,11.85
2022-10-05T05:57:39.326Z,11.88
2022-10-05T06:00:43.169Z,11.86
2022-10-05T06:03:46.284Z,11.95
2022-10-05T06:06:39.373Z,12.13
2022-10-05T06:09:41.414Z,12.34
2022-10-05T06:12:39.322Z,12.09
2022-10-05T06:15:39.414Z,12.21
2022-10-05T06:18:28.322Z,12.26
2022-10-05T06:21:22.469Z,12.35
2022-10-05T06:24:19.344Z,12.27
2022-10-05T06:27:40.305Z,12.62
2022-10-05T06:30:20.969Z,12.64
2022-10-05T06:33:33.293Z,12.66
2022-10-05T06:36:39.335Z,12.43
2022-10-05T06:39:22.433Z,12.34
2022-10-05T06:42:22.305Z,12.69
2022-10-05T06:45:53.334Z,12.39
2022-10-05T06:49:24.229Z,12.35
2022-10-05T06:52:45.374Z,12.62
2022-10-05T06:55:48.279Z,12.70
2022-10-05T06:59:06.289Z,13.15
2022-10-05T07:02:11.308Z,17.75
2022-10-05T07:05:02.382Z,19.67
2022-10-05T07:08:05.234Z,22.54
2022-10-05T07:11:22.364Z,22.72
2022-10-05T07:14:18.254Z,23.57
2022-10-05T07:17:33.237Z,24.42
2022-10-05T07:20:23.248Z,27.05
2022-10-05T07:23:42.337Z,25.57
2022-10-05T07:26:48.523Z,23.63
2022-10-05T07:29:35.358Z,23.39
2022-10-05T07:32:22.259Z,24.88
2022-10-05T07:35:50.247Z,23.93
2022-10-05T07:38:41.451Z,24.49
2022-10-05T07:41:58.241Z,23.68
2022-10-05T07:44:47.098Z,25.17
2022-10-05T07:47:52.202Z,25.96
2022-10-05T07:50:46.244Z,26.27
2022-10-05T07:53:39.212Z,26.64
2022-10-05T07:56:32.165Z,29.10
2022-10-05T07:59:39.181Z,31.31
2022-10-05T08:02:41.309Z,29.10
2022-10-05T08:05:37.186Z,27.86
2022-10-05T08:08:35.214Z,29.49
2022-10-05T08:11:33.166Z,30.40
2022-10-05T08:14:30.197Z,30.21
2022-10-05T08:17:49.227Z,28.63
2022-10-05T08:20:39.370Z,31.70
2022-10-05T08:23:51.179Z,31.16
2022-10-05T08:27:02.160Z,33.57
2022-10-05T08:30:07.149Z,33.59
2022-10-05T08:32:58.149Z,36.01
2022-10-05T08:35:51.337Z,34.64
2022-10-05T08:38:42.154Z,36.00
2022-10-05T08:41:55.193Z,37.92
2022-10-05T08:45:12.117Z,38.01
2022-10-05T08:48:11.184Z,36.55
2022-10-05T08:51:39.175Z,38.54
2022-10-05T08:54:46.732Z,40.43
2022-10-05T08:57:57.141Z,33.68
2022-10-05T09:01:21.231Z,35.04
2022-10-05T09:04:20.068Z,32.76
2022-10-05T09:07:37.979Z,34.92
2022-10-05T09:10:37.120Z,33.40
2022-10-05T09:13:26.238Z,34.33
2022-10-05T09:16:22.213Z,33.73
2022-10-05T09:19:51.154Z,35.80
2022-10-05T09:22:54.584Z,34.34
2022-10-05T09:26:22.142Z,30.78
2022-10-05T09:29:33.138Z,31.80
2022-10-05T09:32:19.247Z,33.29
2022-10-05T09:35:44.095Z,38.21
2022-10-05T09:38:43.110Z,37.79
2022-10-05T09:41:29.336Z,37.79
2022-10-05T09:44:41.058Z,39.35
2022-10-05T09:47:56.080Z,37.09
2022-10-05T09:50:45.304Z,34.53
2022-10-05T09:54:19.115Z,35.34
2022-10-05T09:57:22.193Z,37.79
2022-10-05T10:00:36.115Z,36.04
2022-10-05T10:04:00.043Z,33.34
2022-10-05T10:07:24.211Z,35.75
2022-10-05T10:10:13.066Z,36.20
2022-10-05T10:13:02.800Z,35.33
2022-10-05T10:15:49.124Z,33.96
2022-10-05T10:19:06.906Z,32.43
2022-10-05T10:22:26.053Z,32.11
2022-10-05T10:25:38.094Z,31.44
2022-10-05T10:28:37.790Z,30.02
2022-10-05T10:32:02.039Z,30.42
2022-10-05T10:35:40.028Z,29.27
2022-10-05T10:38:23.833Z,28.63
2022-10-05T10:41:55.028Z,27.74
2022-10-05T10:44:59.022Z,28.81
2022-10-05T10:48:25.409Z,29.28
2022-10-05T10:51:19.746Z,29.46
2022-10-05T10:54:19.223Z,29.13
2022-10-05T10:57:17.121Z,29.34
2022-10-05T11:00:00.170Z,29.47
2022-10-05T11:03:15.119Z,29.29
2022-10-05T11:06:33.997Z,27.48
2022-10-05T11:09:41.971Z,26.78
2022-10-05T11:12:59.992Z,26.56
2022-10-05T11:19:05.012Z,27.08
2022-10-05T11:22:10.037Z,27.41
2022-10-05T11:25:39.004Z,27.74
2022-10-05T11:28:53.027Z,27.32
2022-10-05T11:31:42.137Z,28.10
2022-10-05T11:34:41.043Z,27.29
2022-10-05T11:37:55.206Z,26.04
2022-10-05T11:40:57.039Z,26.41
2022-10-05T11:43:55.138Z,26.61
2022-10-05T11:47:00.003Z,26.47
2022-10-05T11:50:05.683Z,27.06
2022-10-05T11:53:00.005Z,24.99
2022-10-05T11:56:00.010Z,23.06
2022-10-05T11:58:58.618Z,21.26
2022-10-05T12:01:50.936Z,20.24
2022-10-05T12:04:47.066Z,19.53
2022-10-05T12:08:03.945Z,18.89
2022-10-05T12:11:16.927Z,18.67
2022-10-05T12:14:15.973Z,18.54
2022-10-05T12:17:07.429Z,18.29
2022-10-05T12:20:01.957Z,18.34
2022-10-05T12:22:50.809Z,18.18
2022-10-05T12:25:47.933Z,17.95
2022-10-05T12:28:37.348Z,17.85
2022-10-05T12:31:53.927Z,17.95
2022-10-05T12:35:05.923Z,18.05
2022-10-05T12:37:52.288Z,18.11
2022-10-05T12:40:47.942Z,17.99
2022-10-05T12:44:39.885Z,17.93
2022-10-05T12:47:53.913Z,17.99
2022-10-05T12:51:02.067Z,17.92
2022-10-05T12:54:00.937Z,17.93
2022-10-05T12:57:15.825Z,17.85
2022-10-05T13:00:23.506Z,17.90
2022-10-05T13:03:24.927Z,17.85
2022-10-05T13:06:27.343Z,17.72
2022-10-05T13:09:20.958Z,17.66
2022-10-05T13:12:16.893Z,17.70
2022-10-05T13:15:13.202Z,17.70
2022-10-05T13:18:14.875Z,17.80
2022-10-05T13:21:27.089Z,17.83
2022-10-05T13:24:30.910Z,17.64
2022-10-05T13:27:28.425Z,17.71
2022-10-05T13:30:20.906Z,17.58
2022-10-05T13:33:26.932Z,17.56
2022-10-05T13:36:35.023Z,17.50
2022-10-05T13:39:36.914Z,17.45
2022-10-05T13:42:25.579Z,17.28
2022-10-05T13:45:33.952Z,17.11
2022-10-05T13:48:52.981Z,17.10
2022-10-05T13:51:50.835Z,17.12
2022-10-05T13:54:52.007Z,17.21
2022-10-05T13:57:51.804Z,17.26
2022-10-05T14:00:39.839Z,17.28
2022-10-05T14:03:33.966Z,17.28
2022-10-05T14:06:37.917Z,17.18
2022-10-05T14:09:22.143Z,17.14
2022-10-05T14:12:18.983Z,17.17
2022-10-05T14:15:20.004Z,17.17
2022-10-05T14:18:06.905Z,17.11
2022-10-05T14:21:03.049Z,17.04
2022-10-05T14:23:49.857Z,17.01
2022-10-05T14:26:31.802Z,16.89
2022-10-05T14:29:27.826Z,16.91
2022-10-05T14:32:23.840Z,16.84
2022-10-05T14:35:09.993Z,16.71
2022-10-05T14:38:02.901Z,16.68
2022-10-05T14:40:44.913Z,16.55
2022-10-05T14:43:31.788Z,16.64
2022-10-05T14:46:38.807Z,16.48
2022-10-05T14:49:49.857Z,16.56
2022-10-05T14:52:51.637Z,16.41
2022-10-05T14:55:55.795Z,16.35
2022-10-05T14:58:41.806Z,16.33
2022-10-05T15:01:42.895Z,16.32
2022-10-05T15:04:37.920Z,16.30
2022-10-05T15:07:30.842Z,16.27
2022-10-05T15:10:36.948Z,16.20
2022-10-05T15:27:50.527Z,15.50
2022-10-05T15:30:35.977Z,15.59
2022-10-05T15:33:48.394Z,15.70
2022-10-05T15:36:48.004Z,15.69
2022-10-05T15:39:54.330Z,15.76
2022-10-05T15:42:46.531Z,15.77
2022-10-05T15:45:44.363Z,15.65
2022-10-05T15:49:00.324Z,15.73
2022-10-05T15:51:57.262Z,15.56
2022-10-05T15:55:21.315Z,15.67
2022-10-05T15:58:31.594Z,15.64
2022-10-05T16:01:47.627Z,15.73
2022-10-05T16:04:43.329Z,15.72
2022-10-05T16:07:50.986Z,15.65
2022-10-05T16:10:37.612Z,15.68
2022-10-05T16:13:40.356Z,15.58
2022-10-05T16:17:12.819Z,15.55
2022-10-05T16:21:00.273Z,15.46
2022-10-05T16:23:48.385Z,15.40
2022-10-05T16:27:13.382Z,15.33
2022-10-05T16:30:01.278Z,15.32
2022-10-05T16:33:02.249Z,15.36
2022-10-05T16:36:03.263Z,15.28
2022-10-05T16:38:58.224Z,15.20
2022-10-05T16:42:08.274Z,15.13
2022-10-05T16:45:06.950Z,15.14
2022-10-05T16:48:03.297Z,15.08
2022-10-05T16:51:04.073Z,15.12
2022-10-05T16:53:56.229Z,15.07
2022-10-05T16:57:25.271Z,15.04
2022-10-05T17:00:15.974Z,14.92
2022-10-05T17:03:20.247Z,14.87
2022-10-05T17:06:10.257Z,14.70
2022-10-05T17:09:26.219Z,14.58
2022-10-05T17:12:25.194Z,14.58
2022-10-05T17:15:27.376Z,14.49
2022-10-05T17:18:10.767Z,14.45
2022-10-05T17:21:22.233Z,14.38
2022-10-05T17:24:23.311Z,14.30
2022-10-05T17:27:27.330Z,14.12
2022-10-05T17:30:44.366Z,14.12
2022-10-05T17:33:37.216Z,14.10
2022-10-05T17:36:32.196Z,14.08
2022-10-05T17:39:28.250Z,14.00
2022-10-05T17:42:41.199Z,14.00
2022-10-05T17:45:21.546Z,13.93
2022-10-05T17:48:12.178Z,13.89
2022-10-05T17:51:18.185Z,13.83
2022-10-05T17:54:17.221Z,13.82
2022-10-05T17:57:04.354Z,13.80
2022-10-05T17:59:57.151Z,13.80
2022-10-05T18:02:42.860Z,13.79
2022-10-05T18:05:39.180Z,13.75
2022-10-05T18:08:30.247Z,13.74
2022-10-05T18:11:24.258Z,13.70
2022-10-05T18:14:31.197Z,13.76
2022-10-05T18:17:19.221Z,13.75
2022-10-05T18:20:33.164Z,13.65
2022-10-05T18:23:13.533Z,13.52
2022-10-05T18:26:11.158Z,13.52
2022-10-05T18:29:43.155Z,13.47
2022-10-05T18:32:41.131Z,13.25
2022-10-05T18:35:40.202Z,13.15
2022-10-05T18:38:36.154Z,13.21
2022-10-05T18:41:31.947Z,13.14
2022-10-05T18:44:37.166Z,13.08
2022-10-05T18:47:40.207Z,13.07
2022-10-05T18:50:55.118Z,12.95
2022-10-05T18:54:33.070Z,12.91
2022-10-05T18:57:42.088Z,12.79
2022-10-05T19:00:27.206Z,12.82
2022-10-05T19:03:30.056Z,12.88
2022-10-05T19:06:26.214Z,12.86
2022-10-05T19:09:17.087Z,12.85
2022-10-05T19:12:07.062Z,12.85
2022-10-05T19:15:07.033Z,12.80
2022-10-05T19:18:08.071Z,12.89
2022-10-05T19:21:28.066Z,12.86
2022-10-05T19:24:46.175Z,12.84
2022-10-05T19:27:41.031Z,12.77
2022-10-05T19:30:32.047Z,12.77
2022-10-05T19:33:27.584Z,12.66
2022-10-05T19:36:29.068Z,12.68
2022-10-05T19:39:17.298Z,12.63
2022-10-05T19:42:04.049Z,12.65
2022-10-05T19:44:58.196Z,12.74
2022-10-05T19:48:00.027Z,12.72
2022-10-05T19:50:53.717Z,12.77
2022-10-05T19:53:44.058Z,12.65
2022-10-05T19:56:31.227Z,12.45
2022-10-05T19:59:32.029Z,12.39
2022-10-05T20:02:23.019Z,12.39
2022-10-05T20:05:19.996Z,12.49
2022-10-05T20:08:01.259Z,12.49
2022-10-05T20:10:47.969Z,12.52
2022-10-05T20:13:35.017Z,12.29
2022-10-05T20:16:49.024Z,12.23
2022-10-05T20:19:53.613Z,12.09
2022-10-05T20:22:53.007Z,12.06
2022-10-05T20:25:49.980Z,12.00
2022-10-05T20:28:37.999Z,12.01
2022-10-05T20:31:27.084Z,12.01
2022-10-05T20:34:14.992Z,12.00
2022-10-05T20:37:03.002Z,12.00
2022-10-05T20:39:43.897Z,11.91
2022-10-05T20:42:31.960Z,11.97
2022-10-05T20:45:13.047Z,11.94
2022-10-05T20:47:59.937Z,11.96
2022-10-05T20:50:47.489Z,11.84
2022-10-05T20:53:26.941Z,11.87
2022-10-05T20:56:07.309Z,11.82
2022-10-05T20:58:53.941Z,11.76
2022-10-05T21:01:41.265Z,11.76
2022-10-05T21:04:22.991Z,11.77
2022-10-05T21:07:11.942Z,11.82
2022-10-05T21:09:58.947Z,11.76
2022-10-05T21:12:45.933Z,11.73
2022-10-05T21:15:26.025Z,11.72
2022-10-05T21:18:12.915Z,11.69
2022-10-05T21:20:53.050Z,11.63
2022-10-05T21:23:40.908Z,11.56
2022-10-05T21:26:21.998Z,11.57
2022-10-05T21:29:12.275Z,11.54
2022-10-05T21:31:53.096Z,11.52
2022-10-05T21:34:39.910Z,11.48
2022-10-05T21:37:20.062Z,11.47
2022-10-05T21:40:06.879Z,11.50
2022-10-05T21:42:46.959Z,11.51
2022-10-05T21:45:34.937Z,11.50
2022-10-05T21:48:14.975Z,11.43
2022-10-05T21:51:01.878Z,11.48
2022-10-05T21:53:52.915Z,11.50
2022-10-05T21:56:37.950Z,11.49
2022-10-05T21:59:26.860Z,11.50
2022-10-05T22:02:07.329Z,11.45
2022-10-05T22:04:53.868Z,11.39
2022-10-05T22:07:35.132Z,11.41
2022-10-05T22:10:21.875Z,11.48
2022-10-05T22:13:03.557Z,11.54
2022-10-05T22:15:49.878Z,11.50
2022-10-05T22:18:37.341Z,11.52
2022-10-05T22:21:18.819Z,11.39
2022-10-05T22:24:00.276Z,11.35
2022-10-05T22:26:47.874Z,11.27
2022-10-05T22:29:31.543Z,11.21
2022-10-05T22:32:17.823Z,11.17
2022-10-05T22:35:09.115Z,11.14
2022-10-05T22:37:51.933Z,11.07
2022-10-05T22:40:38.922Z,10.97
2022-10-05T22:43:18.939Z,10.95
2022-10-05T22:46:05.866Z,10.88
2022-10-05T22:48:46.924Z,10.86
2022-10-05T22:51:33.906Z,10.81
2022-10-05T22:54:14.304Z,10.79
2022-10-05T22:57:00.795Z,10.75
2022-10-05T22:59:40.873Z,10.78
2022-10-05T23:02:27.866Z,10.73
2022-10-05T23:05:08.313Z,10.72
2022-10-05T23:07:54.791Z,10.71
2022-10-05T23:10:34.938Z,10.69
2022-10-05T23:13:21.785Z,10.73
2022-10-05T23:16:09.830Z,10.80
2022-10-05T23:18:58.780Z,10.88
2022-10-05T23:21:45.780Z,10.78
2022-10-05T23:24:26.139Z,10.69
2022-10-05T23:27:12.768Z,10.72
2022-10-05T23:29:59.757Z,10.73
2022-10-05T23:32:45.040Z,10.69
2022-10-05T23:35:31.747Z,10.62
2022-10-05T23:38:11.859Z,10.58
2022-10-05T23:40:58.776Z,10.56
2022-10-05T23:43:45.745Z,10.58
2022-10-05T23:46:26.244Z,10.55
2022-10-05T23:49:12.695Z,10.53
2022-10-05T23:51:59.726Z,10.59
2022-10-05T23:54:39.795Z,10.60
2022-10-05T23:57:26.722Z,10.62
